sensor_id;sensor_type;location;lat;lon;timestamp;P1;durP1;ratioP1;P2;durP2;ratioP2
72205;SDS011;60111;48.286;7.812;2024-01-30T00:01:27;14.45;;;8.75;;
72205;SDS011;60111;48.286;7.812;2024-01-30T00:04:00;12.65;;;8.35;;
72205;SDS011;60111;48.286;7.812;2024-01-30T00:06:32;15.23;;;8.25;;
72205;SDS011;60111;48.286;7.812;2024-01-30T00:09:05;13.45;;;8.73;;
72205;SDS011;60111;48.286;7.812;2024-01-30T00:11:38;11.95;;;8.20;;
72205;SDS011;60111;48.286;7.812;2024-01-30T00:14:11;13.25;;;8.75;;
72205;SDS011;60111;48.286;7.812;2024-01-30T00:16:44;15.98;;;9.65;;
72205;SDS011;60111;48.286;7.812;2024-01-30T00:19:17;15.68;;;9.20;;
72205;SDS011;60111;48.286;7.812;2024-01-30T00:21:50;15.45;;;9.58;;
72205;SDS011;60111;48.286;7.812;2024-01-30T00:24:23;14.80;;;9.53;;
72205;SDS011;60111;48.286;7.812;2024-01-30T00:26:56;15.20;;;8.95;;
72205;SDS011;60111;48.286;7.812;2024-01-30T00:29:29;14.45;;;9.73;;
72205;SDS011;60111;48.286;7.812;2024-01-30T00:32:03;16.35;;;9.85;;
72205;SDS011;60111;48.286;7.812;2024-01-30T00:34:37;12.63;;;8.78;;
72205;SDS011;60111;48.286;7.812;2024-01-30T00:37:10;13.78;;;9.43;;
72205;SDS011;60111;48.286;7.812;2024-01-30T00:39:42;12.18;;;9.10;;
72205;SDS011;60111;48.286;7.812;2024-01-30T00:42:15;13.13;;;9.68;;
72205;SDS011;60111;48.286;7.812;2024-01-30T00:44:48;12.40;;;8.58;;
72205;SDS011;60111;48.286;7.812;2024-01-30T00:47:21;14.65;;;9.00;;
72205;SDS011;60111;48.286;7.812;2024-01-30T00:49:53;14.13;;;9.20;;
72205;SDS011;60111;48.286;7.812;2024-01-30T00:52:26;12.23;;;8.65;;
72205;SDS011;60111;48.286;7.812;2024-01-30T00:54:59;13.83;;;9.05;;
72205;SDS011;60111;48.286;7.812;2024-01-30T00:57:32;12.95;;;8.23;;
72205;SDS011;60111;48.286;7.812;2024-01-30T01:00:05;11.20;;;7.55;;
72205;SDS011;60111;48.286;7.812;2024-01-30T01:02:40;12.13;;;7.80;;
72205;SDS011;60111;48.286;7.812;2024-01-30T01:05:13;10.93;;;8.08;;
72205;SDS011;60111;48.286;7.812;2024-01-30T01:07:46;14.00;;;7.97;;
72205;SDS011;60111;48.286;7.812;2024-01-30T01:10:21;11.75;;;7.80;;
72205;SDS011;60111;48.286;7.812;2024-01-30T01:12:54;10.78;;;7.90;;
72205;SDS011;60111;48.286;7.812;2024-01-30T01:15:26;11.57;;;7.45;;
72205;SDS011;60111;48.286;7.812;2024-01-30T01:17:59;11.12;;;7.85;;
72205;SDS011;60111;48.286;7.812;2024-01-30T01:20:31;9.43;;;7.35;;
72205;SDS011;60111;48.286;7.812;2024-01-30T01:23:04;10.35;;;7.55;;
72205;SDS011;60111;48.286;7.812;2024-01-30T01:25:37;10.45;;;7.35;;
72205;SDS011;60111;48.286;7.812;2024-01-30T01:28:10;10.83;;;7.87;;
72205;SDS011;60111;48.286;7.812;2024-01-30T01:30:42;11.22;;;7.85;;
72205;SDS011;60111;48.286;7.812;2024-01-30T01:33:15;10.28;;;7.22;;
72205;SDS011;60111;48.286;7.812;2024-01-30T01:35:48;11.78;;;7.67;;
72205;SDS011;60111;48.286;7.812;2024-01-30T01:38:21;9.88;;;7.60;;
72205;SDS011;60111;48.286;7.812;2024-01-30T01:40:53;13.75;;;8.15;;
72205;SDS011;60111;48.286;7.812;2024-01-30T01:43:26;12.90;;;7.85;;
72205;SDS011;60111;48.286;7.812;2024-01-30T01:45:58;12.13;;;7.70;;
72205;SDS011;60111;48.286;7.812;2024-01-30T01:48:32;11.27;;;7.93;;
72205;SDS011;60111;48.286;7.812;2024-01-30T01:51:05;15.40;;;7.97;;
72205;SDS011;60111;48.286;7.812;2024-01-30T01:53:38;11.43;;;8.37;;
72205;SDS011;60111;48.286;7.812;2024-01-30T01:56:10;11.00;;;8.03;;
72205;SDS011;60111;48.286;7.812;2024-01-30T01:58:43;10.32;;;7.78;;
72205;SDS011;60111;48.286;7.812;2024-01-30T02:01:21;11.80;;;7.40;;
72205;SDS011;60111;48.286;7.812;2024-01-30T02:03:55;11.60;;;7.60;;
72205;SDS011;60111;48.286;7.812;2024-01-30T02:06:28;10.78;;;7.62;;
72205;SDS011;60111;48.286;7.812;2024-01-30T02:09:00;12.53;;;8.08;;
72205;SDS011;60111;48.286;7.812;2024-01-30T02:11:35;10.23;;;7.78;;
72205;SDS011;60111;48.286;7.812;2024-01-30T02:14:08;11.25;;;7.60;;
72205;SDS011;60111;48.286;7.812;2024-01-30T02:16:40;11.12;;;7.53;;
72205;SDS011;60111;48.286;7.812;2024-01-30T02:19:13;11.50;;;7.92;;
72205;SDS011;60111;48.286;7.812;2024-01-30T02:21:46;14.15;;;8.40;;
72205;SDS011;60111;48.286;7.812;2024-01-30T02:24:18;14.43;;;8.35;;
72205;SDS011;60111;48.286;7.812;2024-01-30T02:26:51;12.05;;;8.05;;
72205;SDS011;60111;48.286;7.812;2024-01-30T02:29:23;11.85;;;7.80;;
72205;SDS011;60111;48.286;7.812;2024-01-30T02:31:56;11.35;;;8.10;;
72205;SDS011;60111;48.286;7.812;2024-01-30T02:34:29;13.10;;;7.70;;
72205;SDS011;60111;48.286;7.812;2024-01-30T02:37:01;12.58;;;8.20;;
72205;SDS011;60111;48.286;7.812;2024-01-30T02:39:34;9.58;;;7.53;;
72205;SDS011;60111;48.286;7.812;2024-01-30T02:42:06;10.58;;;7.62;;
72205;SDS011;60111;48.286;7.812;2024-01-30T02:44:39;12.20;;;7.72;;
72205;SDS011;60111;48.286;7.812;2024-01-30T02:47:11;11.85;;;7.97;;
72205;SDS011;60111;48.286;7.812;2024-01-30T02:49:44;16.27;;;8.55;;
72205;SDS011;60111;48.286;7.812;2024-01-30T02:52:17;12.83;;;7.97;;
72205;SDS011;60111;48.286;7.812;2024-01-30T02:54:50;13.00;;;8.97;;
72205;SDS011;60111;48.286;7.812;2024-01-30T02:57:22;12.03;;;8.65;;
72205;SDS011;60111;48.286;7.812;2024-01-30T02:59:55;12.18;;;8.63;;
72205;SDS011;60111;48.286;7.812;2024-01-30T03:02:28;12.85;;;8.45;;
72205;SDS011;60111;48.286;7.812;2024-01-30T03:05:01;12.15;;;8.15;;
72205;SDS011;60111;48.286;7.812;2024-01-30T03:07:34;12.53;;;8.63;;
72205;SDS011;60111;48.286;7.812;2024-01-30T03:10:08;11.83;;;8.13;;
72205;SDS011;60111;48.286;7.812;2024-01-30T03:12:40;13.43;;;9.37;;
72205;SDS011;60111;48.286;7.812;2024-01-30T03:15:13;12.10;;;8.35;;
72205;SDS011;60111;48.286;7.812;2024-01-30T03:17:46;15.90;;;8.75;;
72205;SDS011;60111;48.286;7.812;2024-01-30T03:20:18;12.75;;;8.35;;
72205;SDS011;60111;48.286;7.812;2024-01-30T03:22:51;12.68;;;9.03;;
72205;SDS011;60111;48.286;7.812;2024-01-30T03:25:23;11.03;;;8.20;;
72205;SDS011;60111;48.286;7.812;2024-01-30T03:27:56;11.57;;;8.63;;
72205;SDS011;60111;48.286;7.812;2024-01-30T03:30:29;11.28;;;8.15;;
72205;SDS011;60111;48.286;7.812;2024-01-30T03:33:02;16.27;;;9.48;;
72205;SDS011;60111;48.286;7.812;2024-01-30T03:35:34;13.25;;;9.25;;
72205;SDS011;60111;48.286;7.812;2024-01-30T03:38:08;13.58;;;9.50;;
72205;SDS011;60111;48.286;7.812;2024-01-30T03:40:40;11.97;;;8.40;;
72205;SDS011;60111;48.286;7.812;2024-01-30T03:43:13;13.85;;;9.10;;
72205;SDS011;60111;48.286;7.812;2024-01-30T03:45:45;13.68;;;9.15;;
72205;SDS011;60111;48.286;7.812;2024-01-30T03:48:18;12.37;;;8.40;;
72205;SDS011;60111;48.286;7.812;2024-01-30T03:50:52;12.70;;;8.95;;
72205;SDS011;60111;48.286;7.812;2024-01-30T03:53:25;14.57;;;10.07;;
72205;SDS011;60111;48.286;7.812;2024-01-30T03:55:57;16.25;;;11.00;;
72205;SDS011;60111;48.286;7.812;2024-01-30T03:58:30;14.87;;;10.68;;
72205;SDS011;60111;48.286;7.812;2024-01-30T04:01:03;14.20;;;10.03;;
72205;SDS011;60111;48.286;7.812;2024-01-30T04:03:35;13.95;;;9.90;;
72205;SDS011;60111;48.286;7.812;2024-01-30T04:06:08;15.28;;;10.00;;
72205;SDS011;60111;48.286;7.812;2024-01-30T04:08:41;15.88;;;10.63;;
72205;SDS011;60111;48.286;7.812;2024-01-30T04:11:14;15.48;;;10.65;;
72205;SDS011;60111;48.286;7.812;2024-01-30T04:13:46;13.95;;;10.08;;
72205;SDS011;60111;48.286;7.812;2024-01-30T04:16:24;16.17;;;11.22;;
72205;SDS011;60111;48.286;7.812;2024-01-30T04:18:53;16.77;;;10.75;;
72205;SDS011;60111;48.286;7.812;2024-01-30T04:21:26;18.25;;;11.73;;
72205;SDS011;60111;48.286;7.812;2024-01-30T04:23:58;19.45;;;12.73;;
72205;SDS011;60111;48.286;7.812;2024-01-30T04:26:31;17.10;;;11.45;;
72205;SDS011;60111;48.286;7.812;2024-01-30T04:29:04;19.92;;;13.13;;
72205;SDS011;60111;48.286;7.812;2024-01-30T04:31:36;18.98;;;12.78;;
72205;SDS011;60111;48.286;7.812;2024-01-30T04:34:09;20.27;;;12.73;;
72205;SDS011;60111;48.286;7.812;2024-01-30T04:36:43;22.05;;;13.00;;
72205;SDS011;60111;48.286;7.812;2024-01-30T04:39:19;17.60;;;12.95;;
72205;SDS011;60111;48.286;7.812;2024-01-30T04:41:51;19.77;;;13.32;;
72205;SDS011;60111;48.286;7.812;2024-01-30T04:44:24;20.82;;;13.60;;
72205;SDS011;60111;48.286;7.812;2024-01-30T04:46:56;20.50;;;13.57;;
72205;SDS011;60111;48.286;7.812;2024-01-30T04:49:30;19.62;;;13.50;;
72205;SDS011;60111;48.286;7.812;2024-01-30T04:52:03;21.25;;;13.08;;
72205;SDS011;60111;48.286;7.812;2024-01-30T04:54:36;23.30;;;14.15;;
72205;SDS011;60111;48.286;7.812;2024-01-30T04:57:09;22.48;;;14.28;;
72205;SDS011;60111;48.286;7.812;2024-01-30T04:59:43;23.80;;;14.55;;
72205;SDS011;60111;48.286;7.812;2024-01-30T05:02:15;25.60;;;14.90;;
72205;SDS011;60111;48.286;7.812;2024-01-30T05:04:48;20.17;;;13.37;;
72205;SDS011;60111;48.286;7.812;2024-01-30T05:07:20;24.47;;;14.13;;
72205;SDS011;60111;48.286;7.812;2024-01-30T05:09:53;24.90;;;14.33;;
72205;SDS011;60111;48.286;7.812;2024-01-30T05:12:26;22.82;;;13.95;;
72205;SDS011;60111;48.286;7.812;2024-01-30T05:14:58;20.95;;;14.93;;
72205;SDS011;60111;48.286;7.812;2024-01-30T05:17:31;22.75;;;14.70;;
72205;SDS011;60111;48.286;7.812;2024-01-30T05:20:04;20.50;;;14.05;;
72205;SDS011;60111;48.286;7.812;2024-01-30T05:22:38;26.75;;;15.65;;
72205;SDS011;60111;48.286;7.812;2024-01-30T05:25:12;21.27;;;15.60;;
72205;SDS011;60111;48.286;7.812;2024-01-30T05:27:45;25.33;;;14.97;;
72205;SDS011;60111;48.286;7.812;2024-01-30T05:30:18;24.15;;;14.80;;
72205;SDS011;60111;48.286;7.812;2024-01-30T05:32:51;24.10;;;15.55;;
72205;SDS011;60111;48.286;7.812;2024-01-30T05:35:23;22.47;;;15.53;;
72205;SDS011;60111;48.286;7.812;2024-01-30T05:37:56;22.05;;;14.20;;
72205;SDS011;60111;48.286;7.812;2024-01-30T05:40:28;21.20;;;14.85;;
72205;SDS011;60111;48.286;7.812;2024-01-30T05:43:01;21.45;;;14.05;;
72205;SDS011;60111;48.286;7.812;2024-01-30T05:45:34;21.50;;;13.83;;
72205;SDS011;60111;48.286;7.812;2024-01-30T05:48:07;22.02;;;14.93;;
72205;SDS011;60111;48.286;7.812;2024-01-30T05:50:40;24.47;;;15.05;;
72205;SDS011;60111;48.286;7.812;2024-01-30T05:53:12;21.00;;;13.43;;
72205;SDS011;60111;48.286;7.812;2024-01-30T05:55:45;20.25;;;13.45;;
72205;SDS011;60111;48.286;7.812;2024-01-30T05:58:18;22.15;;;13.95;;
72205;SDS011;60111;48.286;7.812;2024-01-30T06:00:50;19.57;;;12.70;;
72205;SDS011;60111;48.286;7.812;2024-01-30T06:03:23;21.27;;;13.25;;
72205;SDS011;60111;48.286;7.812;2024-01-30T06:05:55;19.17;;;12.35;;
72205;SDS011;60111;48.286;7.812;2024-01-30T06:08:28;19.25;;;12.40;;
72205;SDS011;60111;48.286;7.812;2024-01-30T06:11:01;19.90;;;12.00;;
72205;SDS011;60111;48.286;7.812;2024-01-30T06:13:33;16.93;;;11.55;;
72205;SDS011;60111;48.286;7.812;2024-01-30T06:16:09;17.55;;;12.33;;
72205;SDS011;60111;48.286;7.812;2024-01-30T06:18:43;18.75;;;12.15;;
72205;SDS011;60111;48.286;7.812;2024-01-30T06:21:15;16.50;;;11.35;;
72205;SDS011;60111;48.286;7.812;2024-01-30T06:23:48;17.82;;;12.43;;
72205;SDS011;60111;48.286;7.812;2024-01-30T06:26:21;19.02;;;12.58;;
72205;SDS011;60111;48.286;7.812;2024-01-30T06:28:53;20.00;;;12.70;;
72205;SDS011;60111;48.286;7.812;2024-01-30T06:31:26;17.25;;;12.00;;
72205;SDS011;60111;48.286;7.812;2024-01-30T06:33:58;17.27;;;12.60;;
72205;SDS011;60111;48.286;7.812;2024-01-30T06:36:31;20.35;;;14.15;;
72205;SDS011;60111;48.286;7.812;2024-01-30T06:39:03;18.50;;;12.88;;
72205;SDS011;60111;48.286;7.812;2024-01-30T06:41:36;20.52;;;12.93;;
72205;SDS011;60111;48.286;7.812;2024-01-30T06:44:09;22.93;;;12.80;;
72205;SDS011;60111;48.286;7.812;2024-01-30T06:46:42;16.55;;;11.48;;
72205;SDS011;60111;48.286;7.812;2024-01-30T06:49:15;15.93;;;11.08;;
72205;SDS011;60111;48.286;7.812;2024-01-30T06:51:47;15.25;;;11.08;;
72205;SDS011;60111;48.286;7.812;2024-01-30T06:54:20;15.15;;;11.33;;
72205;SDS011;60111;48.286;7.812;2024-01-30T06:56:52;18.35;;;11.22;;
72205;SDS011;60111;48.286;7.812;2024-01-30T06:59:25;22.42;;;12.00;;
72205;SDS011;60111;48.286;7.812;2024-01-30T07:01:58;18.82;;;11.73;;
72205;SDS011;60111;48.286;7.812;2024-01-30T07:04:31;19.25;;;11.15;;
72205;SDS011;60111;48.286;7.812;2024-01-30T07:07:05;17.20;;;11.25;;
72205;SDS011;60111;48.286;7.812;2024-01-30T07:09:57;16.12;;;10.30;;
72205;SDS011;60111;48.286;7.812;2024-01-30T07:12:30;16.10;;;11.18;;
72205;SDS011;60111;48.286;7.812;2024-01-30T07:15:03;16.47;;;10.87;;
72205;SDS011;60111;48.286;7.812;2024-01-30T07:17:38;17.70;;;11.38;;
72205;SDS011;60111;48.286;7.812;2024-01-30T07:20:11;15.53;;;11.38;;
72205;SDS011;60111;48.286;7.812;2024-01-30T07:22:44;19.98;;;12.25;;
72205;SDS011;60111;48.286;7.812;2024-01-30T07:25:16;18.15;;;11.45;;
72205;SDS011;60111;48.286;7.812;2024-01-30T07:27:49;16.65;;;10.90;;
72205;SDS011;60111;48.286;7.812;2024-01-30T07:30:22;15.35;;;10.60;;
72205;SDS011;60111;48.286;7.812;2024-01-30T07:32:54;17.37;;;10.72;;
72205;SDS011;60111;48.286;7.812;2024-01-30T07:35:27;18.87;;;11.95;;
72205;SDS011;60111;48.286;7.812;2024-01-30T07:38:00;19.98;;;12.53;;
72205;SDS011;60111;48.286;7.812;2024-01-30T07:40:32;19.15;;;12.47;;
72205;SDS011;60111;48.286;7.812;2024-01-30T07:43:05;21.77;;;12.23;;
72205;SDS011;60111;48.286;7.812;2024-01-30T07:45:39;19.27;;;12.33;;
72205;SDS011;60111;48.286;7.812;2024-01-30T07:48:12;18.37;;;11.77;;
72205;SDS011;60111;48.286;7.812;2024-01-30T07:50:45;16.67;;;11.25;;
72205;SDS011;60111;48.286;7.812;2024-01-30T07:53:17;18.32;;;11.53;;
72205;SDS011;60111;48.286;7.812;2024-01-30T07:55:50;21.93;;;12.00;;
72205;SDS011;60111;48.286;7.812;2024-01-30T07:58:23;17.95;;;11.30;;
72205;SDS011;60111;48.286;7.812;2024-01-30T08:00:58;22.45;;;14.15;;
72205;SDS011;60111;48.286;7.812;2024-01-30T08:03:31;15.60;;;11.13;;
72205;SDS011;60111;48.286;7.812;2024-01-30T08:06:05;16.97;;;11.87;;
72205;SDS011;60111;48.286;7.812;2024-01-30T08:08:38;15.00;;;10.53;;
72205;SDS011;60111;48.286;7.812;2024-01-30T08:11:10;14.73;;;9.60;;
72205;SDS011;60111;48.286;7.812;2024-01-30T08:13:43;14.68;;;9.88;;
72205;SDS011;60111;48.286;7.812;2024-01-30T08:16:16;15.25;;;9.98;;
72205;SDS011;60111;48.286;7.812;2024-01-30T08:18:49;16.37;;;10.55;;
72205;SDS011;60111;48.286;7.812;2024-01-30T08:21:23;16.93;;;10.13;;
72205;SDS011;60111;48.286;7.812;2024-01-30T08:23:56;12.47;;;9.58;;
72205;SDS011;60111;48.286;7.812;2024-01-30T08:26:28;13.83;;;9.00;;
72205;SDS011;60111;48.286;7.812;2024-01-30T08:29:01;11.68;;;8.15;;
72205;SDS011;60111;48.286;7.812;2024-01-30T08:31:34;13.57;;;8.23;;
72205;SDS011;60111;48.286;7.812;2024-01-30T08:34:07;13.05;;;8.55;;
72205;SDS011;60111;48.286;7.812;2024-01-30T08:36:40;16.75;;;8.38;;
72205;SDS011;60111;48.286;7.812;2024-01-30T08:39:12;13.28;;;8.15;;
72205;SDS011;60111;48.286;7.812;2024-01-30T08:41:45;12.20;;;6.97;;
72205;SDS011;60111;48.286;7.812;2024-01-30T08:44:19;10.55;;;7.00;;
72205;SDS011;60111;48.286;7.812;2024-01-30T08:46:51;9.10;;;6.40;;
72205;SDS011;60111;48.286;7.812;2024-01-30T08:49:24;12.53;;;7.20;;
72205;SDS011;60111;48.286;7.812;2024-01-30T08:51:56;9.38;;;6.80;;
72205;SDS011;60111;48.286;7.812;2024-01-30T08:54:29;9.25;;;6.37;;
72205;SDS011;60111;48.286;7.812;2024-01-30T08:57:03;10.18;;;7.33;;
72205;SDS011;60111;48.286;7.812;2024-01-30T08:59:36;11.65;;;7.42;;
72205;SDS011;60111;48.286;7.812;2024-01-30T09:02:10;14.47;;;7.43;;
72205;SDS011;60111;48.286;7.812;2024-01-30T09:04:43;9.60;;;6.62;;
72205;SDS011;60111;48.286;7.812;2024-01-30T09:07:16;10.10;;;5.92;;
72205;SDS011;60111;48.286;7.812;2024-01-30T09:09:49;10.28;;;5.80;;
72205;SDS011;60111;48.286;7.812;2024-01-30T09:12:21;11.73;;;6.00;;
72205;SDS011;60111;48.286;7.812;2024-01-30T09:14:54;8.73;;;5.22;;
72205;SDS011;60111;48.286;7.812;2024-01-30T09:17:26;8.05;;;5.67;;
72205;SDS011;60111;48.286;7.812;2024-01-30T09:19:59;8.80;;;4.80;;
72205;SDS011;60111;48.286;7.812;2024-01-30T09:22:32;11.08;;;4.67;;
72205;SDS011;60111;48.286;7.812;2024-01-30T09:25:04;11.28;;;5.58;;
72205;SDS011;60111;48.286;7.812;2024-01-30T09:27:37;7.22;;;5.08;;
72205;SDS011;60111;48.286;7.812;2024-01-30T09:30:11;10.95;;;5.62;;
72205;SDS011;60111;48.286;7.812;2024-01-30T09:32:44;8.50;;;5.35;;
72205;SDS011;60111;48.286;7.812;2024-01-30T09:35:16;8.40;;;5.08;;
72205;SDS011;60111;48.286;7.812;2024-01-30T09:37:49;6.08;;;4.45;;
72205;SDS011;60111;48.286;7.812;2024-01-30T09:40:23;10.10;;;5.20;;
72205;SDS011;60111;48.286;7.812;2024-01-30T09:42:56;7.95;;;4.75;;
72205;SDS011;60111;48.286;7.812;2024-01-30T09:45:31;9.05;;;5.08;;
72205;SDS011;60111;48.286;7.812;2024-01-30T09:48:05;12.00;;;4.80;;
72205;SDS011;60111;48.286;7.812;2024-01-30T09:50:38;9.30;;;4.55;;
72205;SDS011;60111;48.286;7.812;2024-01-30T09:53:11;7.60;;;4.97;;
72205;SDS011;60111;48.286;7.812;2024-01-30T09:55:46;6.67;;;4.83;;
72205;SDS011;60111;48.286;7.812;2024-01-30T09:58:21;9.45;;;5.50;;
72205;SDS011;60111;48.286;7.812;2024-01-30T10:00:54;9.00;;;5.47;;
72205;SDS011;60111;48.286;7.812;2024-01-30T10:03:26;9.30;;;5.30;;
72205;SDS011;60111;48.286;7.812;2024-01-30T10:05:59;8.83;;;5.08;;
72205;SDS011;60111;48.286;7.812;2024-01-30T10:08:33;12.05;;;5.10;;
72205;SDS011;60111;48.286;7.812;2024-01-30T10:11:05;9.33;;;4.87;;
72205;SDS011;60111;48.286;7.812;2024-01-30T10:13:38;6.83;;;4.55;;
72205;SDS011;60111;48.286;7.812;2024-01-30T10:16:13;7.35;;;4.42;;
72205;SDS011;60111;48.286;7.812;2024-01-30T10:18:47;6.37;;;4.40;;
72205;SDS011;60111;48.286;7.812;2024-01-30T10:21:20;6.20;;;3.67;;
72205;SDS011;60111;48.286;7.812;2024-01-30T10:23:53;5.25;;;3.95;;
72205;SDS011;60111;48.286;7.812;2024-01-30T10:26:26;6.20;;;4.30;;
72205;SDS011;60111;48.286;7.812;2024-01-30T10:29:00;7.83;;;4.05;;
72205;SDS011;60111;48.286;7.812;2024-01-30T10:31:33;7.07;;;4.10;;
72205;SDS011;60111;48.286;7.812;2024-01-30T10:34:06;10.03;;;3.62;;
72205;SDS011;60111;48.286;7.812;2024-01-30T10:36:42;5.50;;;3.72;;
72205;SDS011;60111;48.286;7.812;2024-01-30T10:39:18;6.87;;;3.87;;
72205;SDS011;60111;48.286;7.812;2024-01-30T10:41:53;7.58;;;4.00;;
72205;SDS011;60111;48.286;7.812;2024-01-30T10:44:27;7.17;;;4.00;;
72205;SDS011;60111;48.286;7.812;2024-01-30T10:47:06;6.05;;;3.77;;
72205;SDS011;60111;48.286;7.812;2024-01-30T10:49:39;5.25;;;3.83;;
72205;SDS011;60111;48.286;7.812;2024-01-30T10:52:13;5.17;;;3.70;;
72205;SDS011;60111;48.286;7.812;2024-01-30T10:57:26;6.20;;;3.90;;
72205;SDS011;60111;48.286;7.812;2024-01-30T10:59:57;4.25;;;3.45;;
72205;SDS011;60111;48.286;7.812;2024-01-30T11:02:32;4.55;;;3.40;;
72205;SDS011;60111;48.286;7.812;2024-01-30T11:05:05;15.33;;;4.73;;
72205;SDS011;60111;48.286;7.812;2024-01-30T11:07:39;8.80;;;3.52;;
72205;SDS011;60111;48.286;7.812;2024-01-30T11:10:12;4.37;;;3.02;;
72205;SDS011;60111;48.286;7.812;2024-01-30T11:12:46;4.63;;;3.40;;
72205;SDS011;60111;48.286;7.812;2024-01-30T11:15:18;4.80;;;3.23;;
72205;SDS011;60111;48.286;7.812;2024-01-30T11:17:52;8.47;;;3.63;;
72205;SDS011;60111;48.286;7.812;2024-01-30T11:20:25;5.53;;;3.75;;
72205;SDS011;60111;48.286;7.812;2024-01-30T11:23:00;6.28;;;3.70;;
72205;SDS011;60111;48.286;7.812;2024-01-30T11:25:35;6.70;;;3.90;;
72205;SDS011;60111;48.286;7.812;2024-01-30T11:28:14;4.05;;;3.35;;
72205;SDS011;60111;48.286;7.812;2024-01-30T11:30:49;6.47;;;3.70;;
72205;SDS011;60111;48.286;7.812;2024-01-30T11:33:42;5.45;;;3.92;;
72205;SDS011;60111;48.286;7.812;2024-01-30T11:36:15;4.50;;;3.40;;
72205;SDS011;60111;48.286;7.812;2024-01-30T11:38:48;6.93;;;3.90;;
72205;SDS011;60111;48.286;7.812;2024-01-30T11:41:21;4.28;;;3.50;;
72205;SDS011;60111;48.286;7.812;2024-01-30T11:43:56;5.70;;;4.00;;
72205;SDS011;60111;48.286;7.812;2024-01-30T11:46:28;11.38;;;3.45;;
72205;SDS011;60111;48.286;7.812;2024-01-30T11:49:01;4.95;;;3.40;;
72205;SDS011;60111;48.286;7.812;2024-01-30T11:51:34;5.85;;;4.12;;
72205;SDS011;60111;48.286;7.812;2024-01-30T11:54:07;5.45;;;3.90;;
72205;SDS011;60111;48.286;7.812;2024-01-30T11:56:40;4.33;;;3.50;;
72205;SDS011;60111;48.286;7.812;2024-01-30T11:59:14;5.35;;;3.75;;
72205;SDS011;60111;48.286;7.812;2024-01-30T12:01:47;7.55;;;4.15;;
72205;SDS011;60111;48.286;7.812;2024-01-30T12:04:20;6.22;;;3.75;;
72205;SDS011;60111;48.286;7.812;2024-01-30T12:06:52;7.63;;;4.07;;
72205;SDS011;60111;48.286;7.812;2024-01-30T12:09:25;5.40;;;3.90;;
72205;SDS011;60111;48.286;7.812;2024-01-30T12:11:58;5.67;;;4.00;;
72205;SDS011;60111;48.286;7.812;2024-01-30T12:14:31;5.45;;;3.65;;
72205;SDS011;60111;48.286;7.812;2024-01-30T12:17:04;7.75;;;4.08;;
72205;SDS011;60111;48.286;7.812;2024-01-30T12:19:38;9.18;;;4.25;;
72205;SDS011;60111;48.286;7.812;2024-01-30T12:22:11;10.03;;;3.77;;
72205;SDS011;60111;48.286;7.812;2024-01-30T12:24:43;7.37;;;3.92;;
72205;SDS011;60111;48.286;7.812;2024-01-30T12:27:17;5.50;;;3.93;;
72205;SDS011;60111;48.286;7.812;2024-01-30T12:29:55;7.20;;;3.90;;
72205;SDS011;60111;48.286;7.812;2024-01-30T12:32:28;7.35;;;3.95;;
72205;SDS011;60111;48.286;7.812;2024-01-30T12:35:01;4.90;;;3.62;;
72205;SDS011;60111;48.286;7.812;2024-01-30T12:37:36;10.93;;;4.40;;
72205;SDS011;60111;48.286;7.812;2024-01-30T12:42:41;6.15;;;3.65;;
72205;SDS011;60111;48.286;7.812;2024-01-30T12:45:14;5.70;;;4.07;;
72205;SDS011;60111;48.286;7.812;2024-01-30T12:47:47;5.75;;;3.95;;
72205;SDS011;60111;48.286;7.812;2024-01-30T12:50:20;5.45;;;3.70;;
72205;SDS011;60111;48.286;7.812;2024-01-30T12:52:53;4.67;;;3.60;;
72205;SDS011;60111;48.286;7.812;2024-01-30T12:55:26;6.67;;;4.22;;
72205;SDS011;60111;48.286;7.812;2024-01-30T12:57:59;8.48;;;3.85;;
72205;SDS011;60111;48.286;7.812;2024-01-30T13:00:32;5.87;;;3.90;;
72205;SDS011;60111;48.286;7.812;2024-01-30T13:03:05;6.55;;;3.75;;
72205;SDS011;60111;48.286;7.812;2024-01-30T13:05:39;4.63;;;3.50;;
72205;SDS011;60111;48.286;7.812;2024-01-30T13:08:11;6.55;;;4.03;;
72205;SDS011;60111;48.286;7.812;2024-01-30T13:10:44;6.70;;;4.40;;
72205;SDS011;60111;48.286;7.812;2024-01-30T13:13:17;6.85;;;3.80;;
72205;SDS011;60111;48.286;7.812;2024-01-30T13:15:49;5.17;;;4.00;;
72205;SDS011;60111;48.286;7.812;2024-01-30T13:18:22;7.67;;;4.90;;
72205;SDS011;60111;48.286;7.812;2024-01-30T13:20:54;7.05;;;4.95;;
72205;SDS011;60111;48.286;7.812;2024-01-30T13:23:27;7.75;;;4.75;;
72205;SDS011;60111;48.286;7.812;2024-01-30T13:25:59;7.62;;;4.28;;
72205;SDS011;60111;48.286;7.812;2024-01-30T13:28:33;5.03;;;4.07;;
72205;SDS011;60111;48.286;7.812;2024-01-30T13:31:05;6.58;;;4.50;;
72205;SDS011;60111;48.286;7.812;2024-01-30T13:33:38;14.50;;;6.78;;
72205;SDS011;60111;48.286;7.812;2024-01-30T13:36:11;11.05;;;6.12;;
72205;SDS011;60111;48.286;7.812;2024-01-30T13:38:44;7.03;;;4.30;;
72205;SDS011;60111;48.286;7.812;2024-01-30T13:41:19;10.13;;;5.67;;
72205;SDS011;60111;48.286;7.812;2024-01-30T13:43:53;8.85;;;5.65;;
72205;SDS011;60111;48.286;7.812;2024-01-30T13:46:26;8.40;;;5.87;;
72205;SDS011;60111;48.286;7.812;2024-01-30T13:48:59;7.62;;;5.03;;
72205;SDS011;60111;48.286;7.812;2024-01-30T13:51:32;8.68;;;4.72;;
72205;SDS011;60111;48.286;7.812;2024-01-30T13:54:04;8.33;;;4.87;;
72205;SDS011;60111;48.286;7.812;2024-01-30T13:56:37;7.13;;;5.00;;
72205;SDS011;60111;48.286;7.812;2024-01-30T13:59:09;6.15;;;4.58;;
72205;SDS011;60111;48.286;7.812;2024-01-30T14:01:42;7.75;;;4.80;;
72205;SDS011;60111;48.286;7.812;2024-01-30T14:04:15;7.30;;;4.95;;
72205;SDS011;60111;48.286;7.812;2024-01-30T14:06:47;6.67;;;4.42;;
72205;SDS011;60111;48.286;7.812;2024-01-30T14:09:20;6.17;;;4.25;;
72205;SDS011;60111;48.286;7.812;2024-01-30T14:11:52;9.53;;;4.80;;
72205;SDS011;60111;48.286;7.812;2024-01-30T14:14:25;7.85;;;5.00;;
72205;SDS011;60111;48.286;7.812;2024-01-30T14:16:58;6.80;;;4.45;;
72205;SDS011;60111;48.286;7.812;2024-01-30T14:19:30;9.23;;;5.03;;
72205;SDS011;60111;48.286;7.812;2024-01-30T14:22:03;10.20;;;4.58;;
72205;SDS011;60111;48.286;7.812;2024-01-30T14:24:36;16.43;;;6.57;;
72205;SDS011;60111;48.286;7.812;2024-01-30T14:27:09;9.00;;;5.50;;
72205;SDS011;60111;48.286;7.812;2024-01-30T14:29:42;11.20;;;5.00;;
72205;SDS011;60111;48.286;7.812;2024-01-30T14:32:15;8.18;;;4.78;;
72205;SDS011;60111;48.286;7.812;2024-01-30T14:34:47;9.88;;;5.30;;
72205;SDS011;60111;48.286;7.812;2024-01-30T14:37:20;15.30;;;6.30;;
72205;SDS011;60111;48.286;7.812;2024-01-30T14:39:53;13.90;;;6.60;;
72205;SDS011;60111;48.286;7.812;2024-01-30T14:42:26;9.40;;;5.30;;
72205;SDS011;60111;48.286;7.812;2024-01-30T14:45:00;7.75;;;4.87;;
72205;SDS011;60111;48.286;7.812;2024-01-30T14:47:34;6.75;;;4.28;;
72205;SDS011;60111;48.286;7.812;2024-01-30T14:50:07;11.08;;;5.15;;
72205;SDS011;60111;48.286;7.812;2024-01-30T14:52:39;6.37;;;4.60;;
72205;SDS011;60111;48.286;7.812;2024-01-30T14:55:12;14.05;;;8.85;;
72205;SDS011;60111;48.286;7.812;2024-01-30T14:57:45;7.35;;;4.55;;
72205;SDS011;60111;48.286;7.812;2024-01-30T15:00:17;6.83;;;4.65;;
72205;SDS011;60111;48.286;7.812;2024-01-30T15:02:50;5.67;;;4.45;;
72205;SDS011;60111;48.286;7.812;2024-01-30T15:05:23;6.75;;;4.30;;
72205;SDS011;60111;48.286;7.812;2024-01-30T15:07:55;5.67;;;4.60;;
72205;SDS011;60111;48.286;7.812;2024-01-30T15:10:28;5.30;;;4.08;;
72205;SDS011;60111;48.286;7.812;2024-01-30T15:13:01;8.18;;;4.80;;
72205;SDS011;60111;48.286;7.812;2024-01-30T15:15:33;9.53;;;4.60;;